Bordertown, Nevada
Current Conditions -  °F | °C
As of 1:35 AM on Wednesday 22 Oct 2014 (Local Time) from KRTS Reporting Station
Clear Clear  
Wind Chill: -1°   Ceiling: Unl
Heat Index:   Visibility: 10mi
Dew Point: -4°   Wind: 6mph
Humidity: 65%   Direction: 340°NNW
Pressure: 30.12"   Gusts: NA
Location:  39.7378°N, 119.889°W
Report Text: KRTS 220835Z AUTO 34005KT 10SM CLR 02/M04 A3012 RMK AO2
Loading
Personal Weather Stations






























Interactive Weather Map
Tropical Storm Tracking
New forecast layout! Learn more

10-Day Weather Forecast

Advertisements
Track Severe Weather on mobile